sensor_id;sensor_type;location;lat;lon;timestamp;P1;durP1;ratioP1;P2;durP2;ratioP2
67930;SDS011;63902;52.000;5.954;2023-07-13T00:00:57;7.22;;;1.83;;
67930;SDS011;63902;52.000;5.954;2023-07-13T00:01:58;12.68;;;2.42;;
67930;SDS011;63902;52.000;5.954;2023-07-13T00:02:59;7.10;;;1.77;;
67930;SDS011;63902;52.000;5.954;2023-07-13T00:04:01;8.45;;;1.88;;
67930;SDS011;63902;52.000;5.954;2023-07-13T00:05:01;5.88;;;1.83;;
67930;SDS011;63902;52.000;5.954;2023-07-13T00:06:02;10.73;;;1.90;;
67930;SDS011;63902;52.000;5.954;2023-07-13T00:07:03;6.35;;;2.00;;
67930;SDS011;63902;52.000;5.954;2023-07-13T00:08:04;9.82;;;2.33;;
67930;SDS011;63902;52.000;5.954;2023-07-13T00:09:05;12.02;;;2.20;;
67930;SDS011;63902;52.000;5.954;2023-07-13T00:10:06;5.60;;;1.75;;
67930;SDS011;63902;52.000;5.954;2023-07-13T00:11:08;5.40;;;1.80;;
67930;SDS011;63902;52.000;5.954;2023-07-13T00:12:22;7.57;;;2.42;;
67930;SDS011;63902;52.000;5.954;2023-07-13T00:13:24;4.97;;;1.67;;
67930;SDS011;63902;52.000;5.954;2023-07-13T00:14:25;6.85;;;1.80;;
67930;SDS011;63902;52.000;5.954;2023-07-13T00:15:27;9.95;;;1.83;;
67930;SDS011;63902;52.000;5.954;2023-07-13T00:16:28;8.57;;;1.77;;
67930;SDS011;63902;52.000;5.954;2023-07-13T00:17:29;8.30;;;1.75;;
67930;SDS011;63902;52.000;5.954;2023-07-13T00:18:29;8.02;;;1.80;;
67930;SDS011;63902;52.000;5.954;2023-07-13T00:19:31;12.32;;;2.33;;
67930;SDS011;63902;52.000;5.954;2023-07-13T00:20:32;7.80;;;2.03;;
67930;SDS011;63902;52.000;5.954;2023-07-13T00:21:32;3.80;;;1.70;;
67930;SDS011;63902;52.000;5.954;2023-07-13T00:22:33;7.13;;;1.65;;
67930;SDS011;63902;52.000;5.954;2023-07-13T00:23:34;6.07;;;1.67;;
67930;SDS011;63902;52.000;5.954;2023-07-13T00:24:37;7.88;;;2.22;;
67930;SDS011;63902;52.000;5.954;2023-07-13T00:25:37;9.82;;;1.80;;
67930;SDS011;63902;52.000;5.954;2023-07-13T00:26:38;7.00;;;2.08;;
67930;SDS011;63902;52.000;5.954;2023-07-13T00:27:39;4.65;;;1.40;;
67930;SDS011;63902;52.000;5.954;2023-07-13T00:28:42;7.63;;;2.45;;
67930;SDS011;63902;52.000;5.954;2023-07-13T00:29:42;9.00;;;1.40;;
67930;SDS011;63902;52.000;5.954;2023-07-13T00:30:43;6.90;;;1.95;;
67930;SDS011;63902;52.000;5.954;2023-07-13T00:31:43;10.20;;;1.73;;
67930;SDS011;63902;52.000;5.954;2023-07-13T00:32:44;8.13;;;1.80;;
67930;SDS011;63902;52.000;5.954;2023-07-13T00:33:45;11.23;;;2.55;;
67930;SDS011;63902;52.000;5.954;2023-07-13T00:34:47;5.10;;;1.45;;
67930;SDS011;63902;52.000;5.954;2023-07-13T00:35:47;7.22;;;1.38;;
67930;SDS011;63902;52.000;5.954;2023-07-13T00:36:48;10.02;;;2.13;;
67930;SDS011;63902;52.000;5.954;2023-07-13T00:37:49;5.20;;;1.38;;
67930;SDS011;63902;52.000;5.954;2023-07-13T00:38:49;2.58;;;1.52;;
67930;SDS011;63902;52.000;5.954;2023-07-13T00:39:50;7.03;;;1.52;;
67930;SDS011;63902;52.000;5.954;2023-07-13T00:40:50;7.82;;;1.75;;
67930;SDS011;63902;52.000;5.954;2023-07-13T00:41:51;5.35;;;1.40;;
67930;SDS011;63902;52.000;5.954;2023-07-13T00:42:52;8.80;;;1.58;;
67930;SDS011;63902;52.000;5.954;2023-07-13T00:43:53;7.43;;;2.40;;
67930;SDS011;63902;52.000;5.954;2023-07-13T00:45:00;6.50;;;1.45;;
67930;SDS011;63902;52.000;5.954;2023-07-13T00:46:13;6.38;;;1.45;;
67930;SDS011;63902;52.000;5.954;2023-07-13T00:47:18;14.93;;;1.88;;
67930;SDS011;63902;52.000;5.954;2023-07-13T00:48:20;10.90;;;1.98;;
67930;SDS011;63902;52.000;5.954;2023-07-13T00:49:24;5.72;;;1.33;;
67930;SDS011;63902;52.000;5.954;2023-07-13T00:50:28;8.80;;;1.77;;
67930;SDS011;63902;52.000;5.954;2023-07-13T00:51:31;3.53;;;1.42;;
67930;SDS011;63902;52.000;5.954;2023-07-13T00:52:35;7.45;;;1.75;;
67930;SDS011;63902;52.000;5.954;2023-07-13T00:53:38;5.32;;;1.73;;
67930;SDS011;63902;52.000;5.954;2023-07-13T00:54:39;8.30;;;1.60;;
67930;SDS011;63902;52.000;5.954;2023-07-13T00:55:43;4.10;;;1.40;;
67930;SDS011;63902;52.000;5.954;2023-07-13T00:56:44;6.90;;;1.60;;
67930;SDS011;63902;52.000;5.954;2023-07-13T00:57:46;4.35;;;1.58;;
67930;SDS011;63902;52.000;5.954;2023-07-13T00:58:47;6.38;;;1.40;;
67930;SDS011;63902;52.000;5.954;2023-07-13T00:59:49;8.70;;;1.85;;
67930;SDS011;63902;52.000;5.954;2023-07-13T01:00:52;6.75;;;1.50;;
67930;SDS011;63902;52.000;5.954;2023-07-13T01:01:53;6.93;;;1.98;;
67930;SDS011;63902;52.000;5.954;2023-07-13T01:02:54;4.05;;;1.17;;
67930;SDS011;63902;52.000;5.954;2023-07-13T01:03:56;3.88;;;1.42;;
67930;SDS011;63902;52.000;5.954;2023-07-13T01:04:57;7.53;;;1.60;;
67930;SDS011;63902;52.000;5.954;2023-07-13T01:05:59;8.15;;;1.65;;
67930;SDS011;63902;52.000;5.954;2023-07-13T01:07:00;4.88;;;1.63;;
67930;SDS011;63902;52.000;5.954;2023-07-13T01:08:02;5.70;;;1.67;;
67930;SDS011;63902;52.000;5.954;2023-07-13T01:09:04;5.97;;;2.05;;
67930;SDS011;63902;52.000;5.954;2023-07-13T01:10:07;5.00;;;1.83;;
67930;SDS011;63902;52.000;5.954;2023-07-13T01:11:08;6.75;;;1.85;;
67930;SDS011;63902;52.000;5.954;2023-07-13T01:12:08;6.57;;;1.50;;
67930;SDS011;63902;52.000;5.954;2023-07-13T01:13:10;7.50;;;1.52;;
67930;SDS011;63902;52.000;5.954;2023-07-13T01:14:11;7.88;;;1.88;;
67930;SDS011;63902;52.000;5.954;2023-07-13T01:16:37;5.15;;;1.52;;
67930;SDS011;63902;52.000;5.954;2023-07-13T01:17:39;11.15;;;1.88;;
67930;SDS011;63902;52.000;5.954;2023-07-13T01:18:40;6.95;;;1.42;;
67930;SDS011;63902;52.000;5.954;2023-07-13T01:19:41;7.00;;;1.80;;
67930;SDS011;63902;52.000;5.954;2023-07-13T01:20:48;5.38;;;1.67;;
67930;SDS011;63902;52.000;5.954;2023-07-13T01:21:51;5.32;;;1.63;;
67930;SDS011;63902;52.000;5.954;2023-07-13T01:22:52;5.47;;;1.98;;
67930;SDS011;63902;52.000;5.954;2023-07-13T01:23:53;7.45;;;1.70;;
67930;SDS011;63902;52.000;5.954;2023-07-13T01:24:54;7.32;;;1.52;;
67930;SDS011;63902;52.000;5.954;2023-07-13T01:25:55;3.35;;;1.48;;
67930;SDS011;63902;52.000;5.954;2023-07-13T01:26:56;3.55;;;1.20;;
67930;SDS011;63902;52.000;5.954;2023-07-13T01:27:57;4.85;;;1.60;;
67930;SDS011;63902;52.000;5.954;2023-07-13T01:28:57;11.55;;;1.70;;
67930;SDS011;63902;52.000;5.954;2023-07-13T01:29:58;5.10;;;1.50;;
67930;SDS011;63902;52.000;5.954;2023-07-13T01:30:59;7.03;;;1.63;;
67930;SDS011;63902;52.000;5.954;2023-07-13T01:31:59;4.45;;;1.45;;
67930;SDS011;63902;52.000;5.954;2023-07-13T01:33:00;4.40;;;1.60;;
67930;SDS011;63902;52.000;5.954;2023-07-13T01:34:01;6.78;;;1.42;;
67930;SDS011;63902;52.000;5.954;2023-07-13T01:35:01;6.00;;;1.70;;
67930;SDS011;63902;52.000;5.954;2023-07-13T01:36:04;4.65;;;1.42;;
67930;SDS011;63902;52.000;5.954;2023-07-13T01:37:05;7.20;;;1.80;;
67930;SDS011;63902;52.000;5.954;2023-07-13T01:38:05;6.93;;;1.65;;
67930;SDS011;63902;52.000;5.954;2023-07-13T01:39:06;2.30;;;1.48;;
67930;SDS011;63902;52.000;5.954;2023-07-13T01:40:07;11.75;;;1.88;;
67930;SDS011;63902;52.000;5.954;2023-07-13T01:41:09;5.97;;;1.40;;
67930;SDS011;63902;52.000;5.954;2023-07-13T01:42:09;9.43;;;1.40;;
67930;SDS011;63902;52.000;5.954;2023-07-13T01:43:10;8.32;;;1.67;;
67930;SDS011;63902;52.000;5.954;2023-07-13T01:44:11;5.88;;;1.48;;
67930;SDS011;63902;52.000;5.954;2023-07-13T01:45:11;5.05;;;1.30;;
67930;SDS011;63902;52.000;5.954;2023-07-13T01:46:12;6.57;;;1.40;;
67930;SDS011;63902;52.000;5.954;2023-07-13T01:47:13;5.63;;;1.30;;
67930;SDS011;63902;52.000;5.954;2023-07-13T01:48:13;6.70;;;2.05;;
67930;SDS011;63902;52.000;5.954;2023-07-13T01:49:14;9.32;;;1.85;;
67930;SDS011;63902;52.000;5.954;2023-07-13T01:50:14;8.57;;;2.08;;
67930;SDS011;63902;52.000;5.954;2023-07-13T01:51:17;5.65;;;1.70;;
67930;SDS011;63902;52.000;5.954;2023-07-13T01:52:18;7.28;;;1.80;;
67930;SDS011;63902;52.000;5.954;2023-07-13T01:53:19;7.72;;;2.28;;
67930;SDS011;63902;52.000;5.954;2023-07-13T01:54:19;6.07;;;1.73;;
67930;SDS011;63902;52.000;5.954;2023-07-13T01:55:20;4.07;;;1.42;;
67930;SDS011;63902;52.000;5.954;2023-07-13T01:56:21;9.27;;;1.73;;
67930;SDS011;63902;52.000;5.954;2023-07-13T01:57:22;4.78;;;1.70;;
67930;SDS011;63902;52.000;5.954;2023-07-13T01:58:23;5.70;;;1.55;;
67930;SDS011;63902;52.000;5.954;2023-07-13T01:59:23;9.20;;;1.83;;
67930;SDS011;63902;52.000;5.954;2023-07-13T02:00:24;7.22;;;2.00;;
67930;SDS011;63902;52.000;5.954;2023-07-13T02:01:25;7.13;;;2.03;;
67930;SDS011;63902;52.000;5.954;2023-07-13T02:02:25;8.65;;;2.00;;
67930;SDS011;63902;52.000;5.954;2023-07-13T02:03:26;5.45;;;1.67;;
67930;SDS011;63902;52.000;5.954;2023-07-13T02:04:27;5.97;;;1.90;;
67930;SDS011;63902;52.000;5.954;2023-07-13T02:05:27;11.15;;;1.88;;
67930;SDS011;63902;52.000;5.954;2023-07-13T02:06:29;5.07;;;1.70;;
67930;SDS011;63902;52.000;5.954;2023-07-13T02:07:30;6.03;;;1.92;;
67930;SDS011;63902;52.000;5.954;2023-07-13T02:08:31;6.00;;;1.80;;
67930;SDS011;63902;52.000;5.954;2023-07-13T02:09:32;3.53;;;1.33;;
67930;SDS011;63902;52.000;5.954;2023-07-13T02:10:33;10.93;;;2.40;;
67930;SDS011;63902;52.000;5.954;2023-07-13T02:11:33;4.47;;;1.50;;
67930;SDS011;63902;52.000;5.954;2023-07-13T02:12:34;7.15;;;2.03;;
67930;SDS011;63902;52.000;5.954;2023-07-13T02:13:35;7.55;;;2.00;;
67930;SDS011;63902;52.000;5.954;2023-07-13T02:14:36;8.52;;;1.85;;
67930;SDS011;63902;52.000;5.954;2023-07-13T02:15:38;7.18;;;1.88;;
67930;SDS011;63902;52.000;5.954;2023-07-13T02:16:39;15.57;;;2.58;;
67930;SDS011;63902;52.000;5.954;2023-07-13T02:17:40;5.57;;;1.63;;
67930;SDS011;63902;52.000;5.954;2023-07-13T02:18:40;3.80;;;1.73;;
67930;SDS011;63902;52.000;5.954;2023-07-13T02:19:41;5.55;;;1.77;;
67930;SDS011;63902;52.000;5.954;2023-07-13T02:20:41;6.75;;;1.50;;
67930;SDS011;63902;52.000;5.954;2023-07-13T02:21:44;11.02;;;2.10;;
67930;SDS011;63902;52.000;5.954;2023-07-13T02:22:44;5.93;;;1.73;;
67930;SDS011;63902;52.000;5.954;2023-07-13T02:23:45;4.53;;;1.58;;
67930;SDS011;63902;52.000;5.954;2023-07-13T02:24:45;6.20;;;2.13;;
67930;SDS011;63902;52.000;5.954;2023-07-13T02:25:46;7.20;;;1.73;;
67930;SDS011;63902;52.000;5.954;2023-07-13T02:26:46;6.78;;;2.15;;
67930;SDS011;63902;52.000;5.954;2023-07-13T02:27:47;7.90;;;2.13;;
67930;SDS011;63902;52.000;5.954;2023-07-13T02:28:48;6.90;;;1.92;;
67930;SDS011;63902;52.000;5.954;2023-07-13T02:29:49;11.70;;;2.20;;
67930;SDS011;63902;52.000;5.954;2023-07-13T02:30:50;6.22;;;2.28;;
67930;SDS011;63902;52.000;5.954;2023-07-13T02:31:50;9.32;;;2.35;;
67930;SDS011;63902;52.000;5.954;2023-07-13T02:32:51;10.52;;;2.15;;
67930;SDS011;63902;52.000;5.954;2023-07-13T02:33:52;7.07;;;1.92;;
67930;SDS011;63902;52.000;5.954;2023-07-13T02:34:52;4.50;;;1.90;;
67930;SDS011;63902;52.000;5.954;2023-07-13T02:35:53;7.28;;;1.80;;
67930;SDS011;63902;52.000;5.954;2023-07-13T02:36:55;8.68;;;2.17;;
67930;SDS011;63902;52.000;5.954;2023-07-13T02:37:56;6.43;;;2.00;;
67930;SDS011;63902;52.000;5.954;2023-07-13T02:38:57;13.05;;;2.05;;
67930;SDS011;63902;52.000;5.954;2023-07-13T02:39:58;5.43;;;2.00;;
67930;SDS011;63902;52.000;5.954;2023-07-13T02:40:59;10.52;;;2.58;;
67930;SDS011;63902;52.000;5.954;2023-07-13T02:41:59;9.73;;;2.50;;
67930;SDS011;63902;52.000;5.954;2023-07-13T02:43:00;7.53;;;1.83;;
67930;SDS011;63902;52.000;5.954;2023-07-13T02:44:01;7.15;;;2.00;;
67930;SDS011;63902;52.000;5.954;2023-07-13T02:45:03;7.70;;;2.33;;
67930;SDS011;63902;52.000;5.954;2023-07-13T02:46:04;9.30;;;2.35;;
67930;SDS011;63902;52.000;5.954;2023-07-13T02:47:04;15.43;;;2.53;;
67930;SDS011;63902;52.000;5.954;2023-07-13T02:48:05;6.07;;;1.88;;
67930;SDS011;63902;52.000;5.954;2023-07-13T02:49:06;8.38;;;2.22;;
67930;SDS011;63902;52.000;5.954;2023-07-13T02:50:07;8.52;;;2.40;;
67930;SDS011;63902;52.000;5.954;2023-07-13T02:51:08;9.25;;;2.30;;
67930;SDS011;63902;52.000;5.954;2023-07-13T02:52:10;6.47;;;2.10;;
67930;SDS011;63902;52.000;5.954;2023-07-13T02:53:11;7.70;;;2.05;;
67930;SDS011;63902;52.000;5.954;2023-07-13T02:54:12;13.20;;;2.63;;
67930;SDS011;63902;52.000;5.954;2023-07-13T02:55:12;8.32;;;1.92;;
67930;SDS011;63902;52.000;5.954;2023-07-13T02:56:13;6.60;;;2.30;;
67930;SDS011;63902;52.000;5.954;2023-07-13T02:57:13;8.95;;;2.13;;
67930;SDS011;63902;52.000;5.954;2023-07-13T02:58:14;7.00;;;2.42;;
67930;SDS011;63902;52.000;5.954;2023-07-13T02:59:15;10.75;;;2.80;;
67930;SDS011;63902;52.000;5.954;2023-07-13T03:00:15;12.15;;;2.40;;
67930;SDS011;63902;52.000;5.954;2023-07-13T03:01:16;12.05;;;2.80;;
67930;SDS011;63902;52.000;5.954;2023-07-13T03:02:17;9.80;;;3.20;;
67930;SDS011;63902;52.000;5.954;2023-07-13T03:03:18;10.98;;;2.60;;
67930;SDS011;63902;52.000;5.954;2023-07-13T03:04:18;7.28;;;2.08;;
67930;SDS011;63902;52.000;5.954;2023-07-13T03:05:19;11.95;;;2.90;;
67930;SDS011;63902;52.000;5.954;2023-07-13T03:06:20;4.80;;;1.95;;
67930;SDS011;63902;52.000;5.954;2023-07-13T03:07:22;8.20;;;2.17;;
67930;SDS011;63902;52.000;5.954;2023-07-13T03:08:22;7.28;;;2.38;;
67930;SDS011;63902;52.000;5.954;2023-07-13T03:09:23;8.50;;;2.10;;
67930;SDS011;63902;52.000;5.954;2023-07-13T03:10:24;6.72;;;2.10;;
67930;SDS011;63902;52.000;5.954;2023-07-13T03:11:25;7.82;;;2.60;;
67930;SDS011;63902;52.000;5.954;2023-07-13T03:12:25;10.40;;;2.83;;
67930;SDS011;63902;52.000;5.954;2023-07-13T03:13:28;8.63;;;2.70;;
67930;SDS011;63902;52.000;5.954;2023-07-13T03:14:28;6.38;;;2.40;;
67930;SDS011;63902;52.000;5.954;2023-07-13T03:15:29;6.45;;;2.58;;
67930;SDS011;63902;52.000;5.954;2023-07-13T03:16:29;6.07;;;2.00;;
67930;SDS011;63902;52.000;5.954;2023-07-13T03:17:30;9.70;;;2.92;;
67930;SDS011;63902;52.000;5.954;2023-07-13T03:18:31;4.80;;;2.15;;
67930;SDS011;63902;52.000;5.954;2023-07-13T03:19:31;8.93;;;2.42;;
67930;SDS011;63902;52.000;5.954;2023-07-13T03:20:32;5.72;;;2.40;;
67930;SDS011;63902;52.000;5.954;2023-07-13T03:21:33;13.40;;;2.35;;
67930;SDS011;63902;52.000;5.954;2023-07-13T03:22:35;10.32;;;2.70;;
67930;SDS011;63902;52.000;5.954;2023-07-13T03:23:36;12.20;;;2.60;;
67930;SDS011;63902;52.000;5.954;2023-07-13T03:24:37;8.82;;;2.58;;
67930;SDS011;63902;52.000;5.954;2023-07-13T03:25:37;13.25;;;2.85;;
67930;SDS011;63902;52.000;5.954;2023-07-13T03:26:38;5.72;;;2.55;;
67930;SDS011;63902;52.000;5.954;2023-07-13T03:27:39;4.43;;;1.98;;
67930;SDS011;63902;52.000;5.954;2023-07-13T03:28:39;5.68;;;2.30;;
67930;SDS011;63902;52.000;5.954;2023-07-13T03:29:40;7.82;;;2.75;;
67930;SDS011;63902;52.000;5.954;2023-07-13T03:30:41;7.47;;;2.42;;
67930;SDS011;63902;52.000;5.954;2023-07-13T03:31:42;10.15;;;2.42;;
67930;SDS011;63902;52.000;5.954;2023-07-13T03:32:42;11.90;;;2.88;;
67930;SDS011;63902;52.000;5.954;2023-07-13T03:33:43;16.08;;;2.72;;
67930;SDS011;63902;52.000;5.954;2023-07-13T03:34:44;7.88;;;2.70;;
67930;SDS011;63902;52.000;5.954;2023-07-13T03:35:44;9.52;;;2.28;;
67930;SDS011;63902;52.000;5.954;2023-07-13T03:36:45;10.38;;;2.70;;
67930;SDS011;63902;52.000;5.954;2023-07-13T03:37:47;10.70;;;2.50;;
67930;SDS011;63902;52.000;5.954;2023-07-13T03:38:48;12.15;;;2.50;;
67930;SDS011;63902;52.000;5.954;2023-07-13T03:39:49;8.45;;;3.22;;
67930;SDS011;63902;52.000;5.954;2023-07-13T03:40:50;7.10;;;2.63;;
67930;SDS011;63902;52.000;5.954;2023-07-13T03:41:51;9.30;;;3.00;;
67930;SDS011;63902;52.000;5.954;2023-07-13T03:42:51;7.22;;;2.80;;
67930;SDS011;63902;52.000;5.954;2023-07-13T03:43:52;12.80;;;2.67;;
67930;SDS011;63902;52.000;5.954;2023-07-13T03:44:53;8.00;;;2.25;;
67930;SDS011;63902;52.000;5.954;2023-07-13T03:45:54;8.57;;;2.20;;
67930;SDS011;63902;52.000;5.954;2023-07-13T03:46:55;6.05;;;2.45;;
67930;SDS011;63902;52.000;5.954;2023-07-13T03:47:55;9.48;;;2.53;;
67930;SDS011;63902;52.000;5.954;2023-07-13T03:48:56;9.65;;;2.63;;
67930;SDS011;63902;52.000;5.954;2023-07-13T03:49:57;8.68;;;3.30;;
67930;SDS011;63902;52.000;5.954;2023-07-13T03:50:58;6.57;;;2.47;;
67930;SDS011;63902;52.000;5.954;2023-07-13T03:51:58;9.32;;;2.70;;
67930;SDS011;63902;52.000;5.954;2023-07-13T03:53:00;6.97;;;2.38;;
67930;SDS011;63902;52.000;5.954;2023-07-13T03:54:01;5.78;;;2.20;;
67930;SDS011;63902;52.000;5.954;2023-07-13T03:55:02;6.63;;;2.30;;
67930;SDS011;63902;52.000;5.954;2023-07-13T03:56:03;16.35;;;3.50;;
67930;SDS011;63902;52.000;5.954;2023-07-13T03:57:05;16.25;;;2.95;;
67930;SDS011;63902;52.000;5.954;2023-07-13T03:59:25;10.23;;;2.77;;
67930;SDS011;63902;52.000;5.954;2023-07-13T04:00:26;8.43;;;2.42;;
67930;SDS011;63902;52.000;5.954;2023-07-13T04:01:27;7.70;;;3.00;;
67930;SDS011;63902;52.000;5.954;2023-07-13T04:02:27;12.00;;;3.22;;
67930;SDS011;63902;52.000;5.954;2023-07-13T04:03:28;7.55;;;2.55;;
67930;SDS011;63902;52.000;5.954;2023-07-13T04:04:29;9.63;;;2.90;;
67930;SDS011;63902;52.000;5.954;2023-07-13T04:05:30;10.45;;;2.60;;
67930;SDS011;63902;52.000;5.954;2023-07-13T04:06:31;13.52;;;3.10;;
67930;SDS011;63902;52.000;5.954;2023-07-13T04:07:32;12.23;;;3.17;;
67930;SDS011;63902;52.000;5.954;2023-07-13T04:08:34;7.43;;;2.47;;
67930;SDS011;63902;52.000;5.954;2023-07-13T04:09:36;8.30;;;2.58;;
67930;SDS011;63902;52.000;5.954;2023-07-13T04:10:37;12.75;;;2.83;;
67930;SDS011;63902;52.000;5.954;2023-07-13T04:11:37;9.27;;;2.30;;
67930;SDS011;63902;52.000;5.954;2023-07-13T04:12:38;11.52;;;2.95;;
67930;SDS011;63902;52.000;5.954;2023-07-13T04:13:38;5.15;;;2.58;;
67930;SDS011;63902;52.000;5.954;2023-07-13T04:14:39;8.63;;;2.88;;
67930;SDS011;63902;52.000;5.954;2023-07-13T04:15:40;6.10;;;3.08;;
67930;SDS011;63902;52.000;5.954;2023-07-13T04:16:40;15.15;;;2.92;;
67930;SDS011;63902;52.000;5.954;2023-07-13T04:17:41;10.40;;;2.35;;
67930;SDS011;63902;52.000;5.954;2023-07-13T04:18:42;8.73;;;2.90;;
67930;SDS011;63902;52.000;5.954;2023-07-13T04:19:43;8.48;;;3.00;;
67930;SDS011;63902;52.000;5.954;2023-07-13T04:20:43;11.48;;;3.05;;
67930;SDS011;63902;52.000;5.954;2023-07-13T04:21:44;8.38;;;2.92;;
67930;SDS011;63902;52.000;5.954;2023-07-13T04:22:44;9.38;;;2.92;;
67930;SDS011;63902;52.000;5.954;2023-07-13T04:23:46;13.60;;;3.53;;
67930;SDS011;63902;52.000;5.954;2023-07-13T04:24:47;13.38;;;3.42;;
67930;SDS011;63902;52.000;5.954;2023-07-13T04:25:48;21.23;;;3.72;;
67930;SDS011;63902;52.000;5.954;2023-07-13T04:26:51;9.07;;;2.95;;
67930;SDS011;63902;52.000;5.954;2023-07-13T04:27:52;14.07;;;2.90;;
67930;SDS011;63902;52.000;5.954;2023-07-13T04:28:53;14.75;;;3.00;;
67930;SDS011;63902;52.000;5.954;2023-07-13T04:29:53;13.45;;;3.80;;
67930;SDS011;63902;52.000;5.954;2023-07-13T04:30:54;10.00;;;3.35;;
67930;SDS011;63902;52.000;5.954;2023-07-13T04:31:55;13.50;;;3.10;;
67930;SDS011;63902;52.000;5.954;2023-07-13T04:32:56;12.55;;;3.75;;
67930;SDS011;63902;52.000;5.954;2023-07-13T04:33:57;9.38;;;2.80;;
67930;SDS011;63902;52.000;5.954;2023-07-13T04:34:58;8.60;;;3.33;;
67930;SDS011;63902;52.000;5.954;2023-07-13T04:35:59;11.98;;;3.63;;
67930;SDS011;63902;52.000;5.954;2023-07-13T04:36:59;8.48;;;3.00;;
67930;SDS011;63902;52.000;5.954;2023-07-13T04:38:00;11.63;;;3.53;;
67930;SDS011;63902;52.000;5.954;2023-07-13T04:39:02;9.27;;;2.88;;
67930;SDS011;63902;52.000;5.954;2023-07-13T04:40:03;8.52;;;3.30;;
67930;SDS011;63902;52.000;5.954;2023-07-13T04:41:05;8.35;;;3.58;;
67930;SDS011;63902;52.000;5.954;2023-07-13T04:42:07;13.88;;;3.33;;
67930;SDS011;63902;52.000;5.954;2023-07-13T04:43:08;14.23;;;3.58;;
67930;SDS011;63902;52.000;5.954;2023-07-13T04:44:08;7.28;;;2.85;;
67930;SDS011;63902;52.000;5.954;2023-07-13T04:45:09;16.35;;;3.00;;
67930;SDS011;63902;52.000;5.954;2023-07-13T04:46:11;12.25;;;3.50;;
67930;SDS011;63902;52.000;5.954;2023-07-13T04:47:13;10.80;;;2.92;;
67930;SDS011;63902;52.000;5.954;2023-07-13T04:48:13;8.90;;;3.30;;
67930;SDS011;63902;52.000;5.954;2023-07-13T04:49:14;6.00;;;2.65;;
67930;SDS011;63902;52.000;5.954;2023-07-13T04:50:15;16.35;;;3.63;;
67930;SDS011;63902;52.000;5.954;2023-07-13T04:51:15;18.02;;;3.50;;
67930;SDS011;63902;52.000;5.954;2023-07-13T04:52:16;12.57;;;3.92;;
67930;SDS011;63902;52.000;5.954;2023-07-13T04:53:17;13.35;;;3.85;;
67930;SDS011;63902;52.000;5.954;2023-07-13T04:54:19;8.07;;;2.90;;
67930;SDS011;63902;52.000;5.954;2023-07-13T04:55:19;10.75;;;3.65;;
67930;SDS011;63902;52.000;5.954;2023-07-13T04:56:20;9.13;;;3.33;;
67930;SDS011;63902;52.000;5.954;2023-07-13T04:57:21;16.38;;;3.30;;
67930;SDS011;63902;52.000;5.954;2023-07-13T04:58:22;12.57;;;3.47;;
67930;SDS011;63902;52.000;5.954;2023-07-13T04:59:25;18.65;;;3.28;;
67930;SDS011;63902;52.000;5.954;2023-07-13T05:00:26;10.68;;;3.60;;
67930;SDS011;63902;52.000;5.954;2023-07-13T05:01:27;16.67;;;3.08;;
67930;SDS011;63902;52.000;5.954;2023-07-13T05:02:27;8.82;;;3.88;;
67930;SDS011;63902;52.000;5.954;2023-07-13T05:03:28;9.25;;;3.38;;
67930;SDS011;63902;52.000;5.954;2023-07-13T05:04:29;13.15;;;4.35;;
67930;SDS011;63902;52.000;5.954;2023-07-13T05:05:29;12.40;;;4.60;;
67930;SDS011;63902;52.000;5.954;2023-07-13T05:06:30;14.13;;;3.55;;
67930;SDS011;63902;52.000;5.954;2023-07-13T05:07:30;14.50;;;3.38;;
67930;SDS011;63902;52.000;5.954;2023-07-13T05:08:31;15.35;;;4.25;;
67930;SDS011;63902;52.000;5.954;2023-07-13T05:09:33;8.98;;;3.22;;
67930;SDS011;63902;52.000;5.954;2023-07-13T05:10:34;13.82;;;4.03;;
67930;SDS011;63902;52.000;5.954;2023-07-13T05:11:35;14.77;;;3.95;;
67930;SDS011;63902;52.000;5.954;2023-07-13T05:12:35;12.55;;;4.15;;
67930;SDS011;63902;52.000;5.954;2023-07-13T05:13:36;8.85;;;3.45;;
67930;SDS011;63902;52.000;5.954;2023-07-13T05:14:36;14.05;;;3.75;;
67930;SDS011;63902;52.000;5.954;2023-07-13T05:15:37;15.18;;;3.67;;
67930;SDS011;63902;52.000;5.954;2023-07-13T05:16:38;11.20;;;3.40;;
67930;SDS011;63902;52.000;5.954;2023-07-13T05:17:38;11.45;;;4.10;;
67930;SDS011;63902;52.000;5.954;2023-07-13T05:18:39;8.70;;;3.85;;
67930;SDS011;63902;52.000;5.954;2023-07-13T05:19:39;8.82;;;3.47;;
67930;SDS011;63902;52.000;5.954;2023-07-13T05:20:40;12.10;;;4.30;;
67930;SDS011;63902;52.000;5.954;2023-07-13T05:21:41;14.90;;;4.07;;
67930;SDS011;63902;52.000;5.954;2023-07-13T05:22:41;14.45;;;3.97;;
67930;SDS011;63902;52.000;5.954;2023-07-13T05:23:42;14.82;;;4.38;;
67930;SDS011;63902;52.000;5.954;2023-07-13T05:24:44;8.98;;;3.53;;
67930;SDS011;63902;52.000;5.954;2023-07-13T05:25:45;11.10;;;3.28;;
67930;SDS011;63902;52.000;5.954;2023-07-13T05:26:45;13.32;;;3.78;;
67930;SDS011;63902;52.000;5.954;2023-07-13T05:27:46;10.20;;;3.60;;
67930;SDS011;63902;52.000;5.954;2023-07-13T05:28:46;20.23;;;4.80;;
67930;SDS011;63902;52.000;5.954;2023-07-13T05:29:47;16.42;;;3.95;;
67930;SDS011;63902;52.000;5.954;2023-07-13T05:30:50;12.55;;;3.92;;
67930;SDS011;63902;52.000;5.954;2023-07-13T05:31:51;11.65;;;3.53;;
67930;SDS011;63902;52.000;5.954;2023-07-13T05:32:52;14.70;;;4.00;;
67930;SDS011;63902;52.000;5.954;2023-07-13T05:33:53;16.05;;;3.95;;
67930;SDS011;63902;52.000;5.954;2023-07-13T05:34:53;12.52;;;4.22;;
67930;SDS011;63902;52.000;5.954;2023-07-13T05:35:54;11.57;;;3.78;;
67930;SDS011;63902;52.000;5.954;2023-07-13T05:36:55;14.98;;;4.10;;
67930;SDS011;63902;52.000;5.954;2023-07-13T05:37:55;11.45;;;4.13;;
67930;SDS011;63902;52.000;5.954;2023-07-13T05:38:56;22.42;;;4.70;;
67930;SDS011;63902;52.000;5.954;2023-07-13T05:39:58;11.88;;;4.40;;
67930;SDS011;63902;52.000;5.954;2023-07-13T05:40:59;13.15;;;4.18;;
67930;SDS011;63902;52.000;5.954;2023-07-13T05:41:59;12.95;;;4.35;;
67930;SDS011;63902;52.000;5.954;2023-07-13T05:43:00;11.25;;;4.22;;
67930;SDS011;63902;52.000;5.954;2023-07-13T05:44:00;8.38;;;3.92;;
67930;SDS011;63902;52.000;5.954;2023-07-13T05:45:01;19.48;;;4.90;;
67930;SDS011;63902;52.000;5.954;2023-07-13T05:46:02;12.73;;;4.50;;
67930;SDS011;63902;52.000;5.954;2023-07-13T05:47:03;16.85;;;4.95;;
67930;SDS011;63902;52.000;5.954;2023-07-13T05:48:04;20.58;;;5.25;;
67930;SDS011;63902;52.000;5.954;2023-07-13T05:49:05;19.33;;;5.15;;
67930;SDS011;63902;52.000;5.954;2023-07-13T05:50:06;13.05;;;4.60;;
67930;SDS011;63902;52.000;5.954;2023-07-13T05:51:07;11.90;;;4.65;;
67930;SDS011;63902;52.000;5.954;2023-07-13T05:52:08;13.70;;;4.82;;
67930;SDS011;63902;52.000;5.954;2023-07-13T05:53:08;16.95;;;4.75;;
67930;SDS011;63902;52.000;5.954;2023-07-13T05:54:09;16.65;;;5.40;;
67930;SDS011;63902;52.000;5.954;2023-07-13T05:55:11;13.93;;;5.20;;
67930;SDS011;63902;52.000;5.954;2023-07-13T05:56:12;16.77;;;5.40;;
67930;SDS011;63902;52.000;5.954;2023-07-13T05:57:12;22.45;;;5.78;;
67930;SDS011;63902;52.000;5.954;2023-07-13T05:58:13;8.90;;;4.90;;
67930;SDS011;63902;52.000;5.954;2023-07-13T05:59:14;18.52;;;5.65;;
67930;SDS011;63902;52.000;5.954;2023-07-13T06:00:15;18.45;;;5.63;;
67930;SDS011;63902;52.000;5.954;2023-07-13T06:01:16;19.73;;;5.60;;
67930;SDS011;63902;52.000;5.954;2023-07-13T06:02:17;18.15;;;5.53;;
67930;SDS011;63902;52.000;5.954;2023-07-13T06:03:17;17.02;;;6.45;;
67930;SDS011;63902;52.000;5.954;2023-07-13T06:04:18;16.60;;;6.25;;
67930;SDS011;63902;52.000;5.954;2023-07-13T06:05:19;22.08;;;5.78;;
67930;SDS011;63902;52.000;5.954;2023-07-13T06:06:19;25.27;;;7.25;;
67930;SDS011;63902;52.000;5.954;2023-07-13T06:07:21;16.10;;;6.15;;
67930;SDS011;63902;52.000;5.954;2023-07-13T06:08:22;18.67;;;6.30;;
67930;SDS011;63902;52.000;5.954;2023-07-13T06:09:22;17.05;;;5.97;;